UKBB/KBP METAR and TAF weather

Enter ICAO airport designator
Station Type Date Time Source
UKBB METAR 2019/08/24 08:00 UTC NOAA

UKBB 240800Z 01005MPS CAVOK 24/12 Q1026 R88/CLRD// NOSIG


Station Type Date Time Source
UKBB Decoded METAR 2019/08/24 08:00 UTC NOAA

Station name not available
Aug 24, 2019 - 04:00 AM EDT / 2019.08.24 0800 UTC
Wind: from the N (010 degrees) at 11 MPH (10 KT):0
Visibility: greater than 7 mile(s):0
Temperature: 75 F (24 C)
Dew Point: 53 F (12 C)
Relative Humidity: 46%
Pressure (altimeter): 30.30 in. Hg (1026 hPa)
ob: UKBB 240800Z 01005MPS CAVOK 24/12 Q1026 R88/CLRD// NOSIG
cycle: 8

Station Type Date Time Source
UKBB TAF 2019/08/24 06:24 UTC NOAA

TAF TAF UKBB 240500Z 2406/2506 02005G10MPS 9999 SCT040 TX27/2413Z TN13/2503Z
TEMPO 2408/2416 04007G12MPS

Example: see airport list